KPOE/POE METAR and TAF weather

Enter ICAO airport designator
Station Type Date Time Source
KPOE METAR 2019/09/20 20:58 UTC NOAA

KPOE 202058Z AUTO 08007KT 10SM FEW040 SCT070 OVC100 25/23 A3004 RMK AO2 RAB22E34 SLP172 P0011 60011 T02530225 55009


Station Type Date Time Source
KPOE Decoded METAR 2019/09/20 20:58 UTC NOAA

Fort Polk, Polk AAF Ft Polk, LA, United States (KPOE) 31-03N 093-11-38W
Sep 20, 2019 - 04:58 PM EDT / 2019.09.20 2058 UTC
Wind: from the E (080 degrees) at 8 MPH (7 KT):0
Visibility: 10 mile(s):0
Sky conditions: overcast
Precipitation last hour: 0.11 inches
Temperature: 77.5 F (25.3 C)
Dew Point: 72.5 F (22.5 C)
Relative Humidity: 84%
Pressure (altimeter): 30.04 in. Hg (1017 hPa)
Pressure tendency: 0.03 inches (0.9 hPa) lower than three hours ago
ob: KPOE 202058Z AUTO 08007KT 10SM FEW040 SCT070 OVC100 25/23 A3004 RMK AO2 RAB22E34 SLP172 P0011 60011 T02530225 55009
cycle: 21

Station Type Date Time Source
KPOE TAF 2019/09/20 19:54 UTC NOAA

TAF TAF
AMD KPOE 201940Z 2019/2122 13008KT 9999 BKN018 BKN080 QNH2999INS
TEMPO 2020/2023 15010G15KT 8000 -TSRA SCT008CB BKN030
BECMG 2101/2102 VRB06KT 9999 SCT010 BKN040 QNH3002INS
BECMG 2115/2116 13010KT 9999 FEW050 QNH3002INS TX31/2021Z TN22/2112Z

Example: see airport list